Oakland, California
Current Conditions -  °F | °C
As of 12:53 PM on Friday 24 Oct 2014 (Local Time) from KOAK Reporting Station
Few Clouds Few Clouds  
Wind Chill: 68°   Ceiling: Unl
Heat Index: 68°   Visibility: 10mi
Dew Point: 54°   Wind: 7mph
Humidity: 61%   Direction: 270°W
Pressure: 29.94"   Gusts: NA
Location:  37.81°N, 122.27°W
Report Text: KOAK 241953Z 27006KT 10SM FEW012 20/12 A2994 RMK AO2 SLP136 T02000122
Loading
Personal Weather Stations






























Interactive Weather Map
Tropical Storm Tracking
New forecast layout! Learn more

10-Day Weather Forecast

Advertisements
Track Severe Weather on mobile